createdAt,value
2022-11-02T00:00:59.258Z,71.90
2022-11-02T00:03:22.534Z,72.10
2022-11-02T00:05:47.158Z,72.80
2022-11-02T00:08:10.593Z,73.60
2022-11-02T00:10:33.899Z,72.90
2022-11-02T00:12:57.434Z,73.40
2022-11-02T00:15:20.755Z,73.90
2022-11-02T00:17:47.188Z,72.70
2022-11-02T00:20:14.016Z,73.20
2022-11-02T00:22:39.653Z,73.30
2022-11-02T00:25:04.911Z,73.50
2022-11-02T00:27:29.495Z,72.90
2022-11-02T00:29:52.869Z,73.40
2022-11-02T00:32:16.135Z,72.70
2022-11-02T00:34:39.497Z,73.40
2022-11-02T00:37:02.793Z,73.40
2022-11-02T00:39:27.406Z,73.60
2022-11-02T00:41:50.679Z,73.30
2022-11-02T00:44:13.965Z,73.30
2022-11-02T00:46:37.199Z,72.80
2022-11-02T00:49:00.880Z,72.60
2022-11-02T00:51:25.228Z,73.10
2022-11-02T00:53:48.483Z,72.50
2022-11-02T00:56:13.210Z,72.40
2022-11-02T00:58:36.547Z,72.10
2022-11-02T01:01:00.061Z,72.00
2022-11-02T01:03:23.395Z,71.90
2022-11-02T01:05:46.612Z,72.40
2022-11-02T01:08:11.250Z,72.80
2022-11-02T01:10:34.513Z,72.70
2022-11-02T01:12:59.146Z,72.90
2022-11-02T01:15:23.024Z,73.40
2022-11-02T01:17:46.461Z,73.10
2022-11-02T01:20:11.254Z,72.80
2022-11-02T01:22:34.527Z,72.70
2022-11-02T01:24:57.889Z,73.30
2022-11-02T01:27:22.990Z,73.00
2022-11-02T01:29:47.635Z,73.90
2022-11-02T01:32:11.842Z,74.00
2022-11-02T01:34:35.088Z,74.00
2022-11-02T01:36:58.908Z,74.00
2022-11-02T01:39:22.231Z,73.50
2022-11-02T01:41:46.411Z,73.80
2022-11-02T01:44:29.857Z,73.80
2022-11-02T01:46:58.766Z,74.10
2022-11-02T01:49:22.995Z,74.80
2022-11-02T01:51:52.566Z,74.90
2022-11-02T01:54:19.959Z,74.10
2022-11-02T01:56:48.502Z,74.50
2022-11-02T01:59:18.110Z,74.60
2022-11-02T02:01:41.626Z,74.60
2022-11-02T02:04:07.009Z,74.10
2022-11-02T02:06:34.318Z,74.60
2022-11-02T02:09:06.206Z,74.90
2022-11-02T02:11:32.523Z,74.80
2022-11-02T02:13:59.435Z,74.90
2022-11-02T02:16:33.973Z,75.30
2022-11-02T02:19:02.550Z,75.30
2022-11-02T02:21:51.562Z,75.20
2022-11-02T02:24:43.366Z,75.60
2022-11-02T02:27:16.370Z,75.80
2022-11-02T02:29:54.284Z,75.80
2022-11-02T02:32:26.256Z,75.40
2022-11-02T02:34:55.110Z,75.50
2022-11-02T02:37:23.627Z,75.30
2022-11-02T02:39:54.761Z,75.10
2022-11-02T02:42:24.554Z,75.10
2022-11-02T02:45:00.462Z,75.10
2022-11-02T02:47:27.764Z,75.00
2022-11-02T02:49:57.940Z,75.50
2022-11-02T02:52:24.519Z,75.60
2022-11-02T02:54:50.293Z,75.60
2022-11-02T02:57:19.248Z,75.10
2022-11-02T02:59:43.888Z,75.20
2022-11-02T03:02:18.083Z,75.20
2022-11-02T03:04:41.758Z,75.60
2022-11-02T03:07:05.799Z,75.70
2022-11-02T03:09:35.823Z,74.90
2022-11-02T03:12:21.198Z,74.90
2022-11-02T03:15:02.052Z,74.80
2022-11-02T03:17:33.710Z,75.40
2022-11-02T03:20:08.561Z,74.40
2022-11-02T03:22:41.111Z,74.70
2022-11-02T03:25:15.038Z,75.10
2022-11-02T03:27:49.578Z,75.30
2022-11-02T03:30:17.259Z,75.70
2022-11-02T03:32:51.339Z,75.60
2022-11-02T03:35:21.091Z,75.40
2022-11-02T03:37:50.808Z,74.80
2022-11-02T03:40:20.286Z,75.10
2022-11-02T03:42:44.633Z,74.90
2022-11-02T03:45:14.399Z,74.90
2022-11-02T03:47:39.588Z,74.90
2022-11-02T03:50:10.662Z,74.80
2022-11-02T03:52:39.398Z,75.10
2022-11-02T03:55:07.794Z,74.90
2022-11-02T03:57:40.485Z,75.30
2022-11-02T04:00:14.599Z,75.50
2022-11-02T04:02:39.017Z,75.30
2022-11-02T04:05:02.614Z,76.00
2022-11-02T04:07:55.425Z,76.20
2022-11-02T04:10:22.313Z,76.40
2022-11-02T04:13:03.229Z,76.60
2022-11-02T04:15:26.515Z,76.50
2022-11-02T04:18:07.908Z,75.90
2022-11-02T04:20:31.728Z,75.00
2022-11-02T04:23:14.392Z,75.90
2022-11-02T04:25:38.954Z,76.10
2022-11-02T04:28:11.551Z,75.30
2022-11-02T04:30:52.082Z,75.00
2022-11-02T04:33:35.568Z,75.20
2022-11-02T04:36:25.106Z,74.80
2022-11-02T04:38:53.038Z,75.10
2022-11-02T04:41:41.224Z,74.70
2022-11-02T04:44:10.216Z,75.00
2022-11-02T04:46:36.529Z,74.70
2022-11-02T04:49:00.416Z,74.90
2022-11-02T04:51:27.018Z,75.20
2022-11-02T04:53:50.616Z,75.40
2022-11-02T04:56:15.629Z,74.90
2022-11-02T04:58:39.556Z,74.80
2022-11-02T05:01:07.515Z,74.60
2022-11-02T05:03:30.776Z,75.10
2022-11-02T05:05:55.930Z,74.30
2022-11-02T05:08:20.414Z,75.30
2022-11-02T05:10:43.756Z,74.90
2022-11-02T05:13:08.392Z,74.60
2022-11-02T05:15:32.602Z,74.60
2022-11-02T05:17:57.151Z,74.30
2022-11-02T05:20:20.538Z,74.50
2022-11-02T05:22:44.142Z,74.60
2022-11-02T05:25:10.407Z,74.30
2022-11-02T05:27:34.169Z,74.60
2022-11-02T05:29:59.946Z,74.60
2022-11-02T05:32:23.882Z,75.10
2022-11-02T05:34:47.150Z,75.10
2022-11-02T05:37:11.090Z,75.30
2022-11-02T05:39:34.316Z,74.90
2022-11-02T05:41:58.068Z,75.70
2022-11-02T05:44:21.722Z,75.00
2022-11-02T05:46:46.533Z,75.40
2022-11-02T05:49:09.791Z,75.40
2022-11-02T05:51:33.047Z,75.10
2022-11-02T05:53:56.349Z,75.00
2022-11-02T05:56:24.764Z,75.50
2022-11-02T05:58:48.658Z,75.20
2022-11-02T06:01:12.888Z,75.10
2022-11-02T06:03:37.732Z,75.70
2022-11-02T06:06:03.383Z,75.50
2022-11-02T06:08:26.892Z,75.00
2022-11-02T06:10:50.101Z,75.60
2022-11-02T06:13:13.371Z,75.30
2022-11-02T06:15:36.691Z,75.70
2022-11-02T06:18:00.061Z,75.20
2022-11-02T06:20:25.058Z,74.20
2022-11-02T06:22:48.601Z,74.70
2022-11-02T06:25:12.698Z,75.00
2022-11-02T06:27:36.384Z,74.90
2022-11-02T06:30:01.547Z,74.80
2022-11-02T06:32:24.883Z,74.70
2022-11-02T06:34:48.063Z,74.30
2022-11-02T06:37:12.687Z,74.10
2022-11-02T06:42:00.059Z,74.20
2022-11-02T06:44:23.330Z,74.20
2022-11-02T06:46:46.615Z,73.80
2022-11-02T06:49:09.814Z,74.00
2022-11-02T06:51:33.056Z,74.00
2022-11-02T06:53:57.657Z,74.50
2022-11-02T06:56:20.838Z,73.80
2022-11-02T06:58:44.026Z,74.40
2022-11-02T07:01:09.607Z,74.30
2022-11-02T07:03:33.099Z,74.30
2022-11-02T07:05:56.412Z,74.70
2022-11-02T07:08:20.542Z,74.20
2022-11-02T07:10:45.358Z,73.60
2022-11-02T07:13:08.573Z,73.50
2022-11-02T07:15:31.804Z,74.10
2022-11-02T07:17:55.594Z,74.40
2022-11-02T07:20:19.362Z,73.70
2022-11-02T07:22:42.706Z,74.20
2022-11-02T07:25:07.484Z,73.50
2022-11-02T07:27:32.255Z,74.00
2022-11-02T07:29:55.485Z,73.80
2022-11-02T07:32:18.771Z,74.00
2022-11-02T07:34:42.071Z,73.50
2022-11-02T07:37:05.358Z,73.80
2022-11-02T07:39:28.697Z,73.30
2022-11-02T07:41:52.267Z,73.20
2022-11-02T07:44:16.885Z,73.10
2022-11-02T07:46:52.125Z,74.10
2022-11-02T07:49:21.112Z,73.10
2022-11-02T07:51:44.814Z,72.90
2022-11-02T07:54:08.293Z,73.10
2022-11-02T07:56:31.618Z,73.30
2022-11-02T07:58:54.945Z,73.00
2022-11-02T08:01:19.519Z,72.50
2022-11-02T08:03:43.695Z,72.50
2022-11-02T08:06:07.730Z,72.40
2022-11-02T08:08:31.205Z,72.50
2022-11-02T08:10:54.502Z,72.40
2022-11-02T08:13:20.174Z,72.30
2022-11-02T08:15:43.811Z,72.20
2022-11-02T08:18:11.377Z,71.80
2022-11-02T08:20:36.908Z,72.10
2022-11-02T08:23:00.207Z,71.90
2022-11-02T08:25:23.481Z,72.10
2022-11-02T08:27:46.721Z,71.70
2022-11-02T08:30:12.127Z,72.20
2022-11-02T08:32:35.540Z,71.70
2022-11-02T08:35:00.126Z,72.10
2022-11-02T08:37:23.542Z,71.90
2022-11-02T08:39:47.463Z,71.70
2022-11-02T08:42:10.710Z,71.40
2022-11-02T08:44:36.590Z,71.30
2022-11-02T08:47:04.194Z,71.40
2022-11-02T08:49:30.178Z,72.10
2022-11-02T08:51:54.770Z,71.80
2022-11-02T08:54:18.107Z,71.70
2022-11-02T08:56:41.393Z,71.00
2022-11-02T08:59:04.757Z,71.30
2022-11-02T09:01:28.031Z,70.80
2022-11-02T09:03:51.345Z,70.70
2022-11-02T09:06:14.809Z,71.70
2022-11-02T09:08:39.389Z,70.50
2022-11-02T09:11:04.533Z,71.20
2022-11-02T09:13:27.948Z,71.40
2022-11-02T09:15:53.328Z,71.10
2022-11-02T09:18:16.523Z,71.80
2022-11-02T09:20:39.762Z,70.90
2022-11-02T09:23:03.121Z,71.50
2022-11-02T09:25:28.783Z,70.70
2022-11-02T09:28:04.286Z,71.00
2022-11-02T09:30:29.405Z,71.30
2022-11-02T09:32:56.533Z,70.20
2022-11-02T09:35:20.025Z,70.60
2022-11-02T09:37:50.004Z,70.30
2022-11-02T09:40:16.034Z,71.50
2022-11-02T09:42:46.547Z,70.70
2022-11-02T09:45:16.042Z,70.20
2022-11-02T09:48:15.408Z,69.60
2022-11-02T09:50:40.044Z,70.20
2022-11-02T09:53:08.965Z,69.40
2022-11-02T09:55:48.222Z,68.80
2022-11-02T09:58:19.328Z,67.20
2022-11-02T10:00:46.843Z,67.50
2022-11-02T10:03:26.414Z,67.70
2022-11-02T10:05:56.975Z,67.50
2022-11-02T10:08:40.226Z,68.10
2022-11-02T10:11:19.497Z,67.20
2022-11-02T10:13:50.109Z,68.00
2022-11-02T10:16:22.344Z,67.10
2022-11-02T10:18:49.383Z,66.50
2022-11-02T10:21:18.310Z,65.20
2022-11-02T10:23:46.123Z,64.70
2022-11-02T10:26:20.318Z,63.00
2022-11-02T10:28:49.039Z,62.80
2022-11-02T10:31:25.478Z,62.40
2022-11-02T10:33:52.829Z,63.50
2022-11-02T10:36:37.738Z,63.70
2022-11-02T10:39:15.879Z,61.80
2022-11-02T10:41:59.343Z,61.20
2022-11-02T10:44:42.182Z,62.00
2022-11-02T10:47:16.381Z,60.90
2022-11-02T10:50:15.339Z,60.50
2022-11-02T10:52:41.346Z,60.80
2022-11-02T10:55:05.121Z,61.30
2022-11-02T10:57:30.062Z,61.50
2022-11-02T11:00:39.595Z,61.60
2022-11-02T11:03:13.757Z,61.00
2022-11-02T11:05:44.479Z,61.00
2022-11-02T11:08:08.340Z,60.60
2022-11-02T11:10:38.779Z,60.20
2022-11-02T11:13:05.015Z,61.20
2022-11-02T11:15:48.731Z,61.00
2022-11-02T11:20:58.383Z,59.70
2022-11-02T11:23:24.651Z,60.40
2022-11-02T11:26:00.475Z,60.90
2022-11-02T11:28:28.749Z,60.00
2022-11-02T11:31:06.286Z,60.00
2022-11-02T11:33:31.097Z,58.90
2022-11-02T11:35:54.673Z,59.40
2022-11-02T11:38:21.235Z,58.40
2022-11-02T11:40:48.719Z,59.20
2022-11-02T11:43:16.788Z,59.60
2022-11-02T11:45:41.735Z,60.50
2022-11-02T11:48:22.126Z,60.20
2022-11-02T11:50:48.662Z,61.00
2022-11-02T11:53:20.459Z,60.60
2022-11-02T11:55:49.377Z,60.60
2022-11-02T11:58:17.838Z,59.90
2022-11-02T12:00:43.478Z,60.60
2022-11-02T12:03:10.925Z,59.60
2022-11-02T12:05:50.467Z,60.10
2022-11-02T12:08:50.413Z,60.20
2022-11-02T12:11:33.522Z,60.20
2022-11-02T12:14:25.158Z,60.70
2022-11-02T12:17:10.366Z,62.40
2022-11-02T12:20:03.274Z,62.10
2022-11-02T12:22:39.562Z,63.00
2022-11-02T12:25:21.787Z,62.20
2022-11-02T12:27:52.958Z,63.10
2022-11-02T12:30:19.722Z,60.80
2022-11-02T12:33:07.033Z,60.60
2022-11-02T12:35:51.071Z,60.00
2022-11-02T12:38:39.544Z,59.90
2022-11-02T12:41:08.275Z,59.90
2022-11-02T12:43:40.811Z,62.30
2022-11-02T12:46:27.212Z,60.50
2022-11-02T12:49:05.339Z,60.80
2022-11-02T12:51:32.358Z,61.90
2022-11-02T12:53:59.226Z,61.90
2022-11-02T12:56:28.124Z,61.40
2022-11-02T12:58:52.497Z,61.40
2022-11-02T13:01:25.573Z,61.90
2022-11-02T13:03:58.392Z,61.80
2022-11-02T13:06:26.623Z,62.20
2022-11-02T13:08:55.885Z,62.50
2022-11-02T13:11:24.435Z,63.00
2022-11-02T13:13:52.376Z,62.90
2022-11-02T13:16:18.137Z,63.10
2022-11-02T13:18:48.575Z,62.50
2022-11-02T13:21:15.122Z,62.30
2022-11-02T13:23:44.982Z,62.40
2022-11-02T13:26:15.163Z,63.40
2022-11-02T13:28:44.959Z,64.60
2022-11-02T13:31:15.775Z,63.80
2022-11-02T13:33:44.665Z,63.40
2022-11-02T13:36:08.546Z,63.70
2022-11-02T13:38:36.767Z,64.10
2022-11-02T13:41:21.038Z,63.70
2022-11-02T13:44:34.507Z,62.40
2022-11-02T13:47:18.897Z,62.50
2022-11-02T13:49:45.917Z,63.10
2022-11-02T13:52:15.289Z,64.50
2022-11-02T13:54:44.157Z,63.60
2022-11-02T13:57:21.715Z,63.50
2022-11-02T13:59:46.557Z,63.30
2022-11-02T14:02:17.723Z,64.60
2022-11-02T14:04:43.104Z,65.00
2022-11-02T14:07:11.175Z,65.50
2022-11-02T14:09:42.151Z,63.90
2022-11-02T14:12:29.847Z,62.40
2022-11-02T14:15:47.432Z,62.60
2022-11-02T14:18:17.002Z,62.70
2022-11-02T14:20:43.093Z,64.00
2022-11-02T14:23:42.573Z,62.40
2022-11-02T14:26:34.691Z,62.70
2022-11-02T14:28:57.991Z,63.30
2022-11-02T14:31:41.458Z,64.20
2022-11-02T14:34:22.375Z,64.90
2022-11-02T14:37:05.670Z,63.50
2022-11-02T14:39:39.917Z,64.40
2022-11-02T14:42:41.283Z,63.00
2022-11-02T14:45:28.502Z,63.30
2022-11-02T14:48:00.480Z,63.00
2022-11-02T14:50:23.854Z,61.70
2022-11-02T14:53:00.107Z,60.70
2022-11-02T14:55:26.870Z,59.30
2022-11-02T14:57:58.155Z,60.00
2022-11-02T15:00:24.233Z,61.80
2022-11-02T15:02:48.303Z,61.60
2022-11-02T15:05:24.875Z,64.90
2022-11-02T15:07:52.073Z,67.60
2022-11-02T15:10:42.073Z,67.70
2022-11-02T15:13:48.879Z,67.00
2022-11-02T15:16:24.496Z,66.80
2022-11-02T15:18:48.182Z,65.40
2022-11-02T15:21:25.839Z,67.20
2022-11-02T15:23:58.597Z,68.00
2022-11-02T15:26:30.236Z,66.20
2022-11-02T15:29:00.058Z,67.90
2022-11-02T15:31:26.543Z,67.50
2022-11-02T15:33:52.814Z,68.40
2022-11-02T15:36:22.637Z,68.30
2022-11-02T15:38:49.563Z,67.50
2022-11-02T15:41:27.126Z,69.10
2022-11-02T15:44:21.329Z,69.10
2022-11-02T15:47:03.438Z,70.40
2022-11-02T15:50:08.515Z,69.70
2022-11-02T15:53:21.018Z,70.90
2022-11-02T15:55:47.383Z,71.40
2022-11-02T15:58:26.081Z,70.60
2022-11-02T16:01:17.005Z,72.60
2022-11-02T16:03:45.458Z,72.50
2022-11-02T16:06:08.733Z,72.30
2022-11-02T16:08:34.862Z,73.00
2022-11-02T16:11:06.229Z,71.70
2022-11-02T16:13:33.167Z,73.50
2022-11-02T16:16:09.767Z,72.50
2022-11-02T16:18:38.304Z,74.20
2022-11-02T16:21:03.974Z,73.40
2022-11-02T16:23:30.326Z,73.60
2022-11-02T16:25:55.609Z,74.20
2022-11-02T16:28:22.713Z,73.00
2022-11-02T16:31:00.456Z,72.00
2022-11-02T16:33:25.672Z,72.80
2022-11-02T16:35:49.016Z,73.30
2022-11-02T16:38:12.505Z,73.60
2022-11-02T16:40:35.831Z,74.40
2022-11-02T16:42:59.214Z,74.60
2022-11-02T16:45:43.489Z,74.60
2022-11-02T16:48:19.524Z,74.60
2022-11-02T16:51:02.736Z,75.00
2022-11-02T16:53:30.127Z,75.80
2022-11-02T16:55:59.325Z,75.90
2022-11-02T16:58:25.234Z,76.00
2022-11-02T17:01:00.303Z,76.40
2022-11-02T17:03:27.641Z,77.30
2022-11-02T17:05:52.947Z,77.40
2022-11-02T17:08:29.947Z,77.80
2022-11-02T17:10:57.002Z,77.60
2022-11-02T17:13:22.112Z,77.50
2022-11-02T17:15:50.701Z,77.30
2022-11-02T17:18:25.230Z,77.60
2022-11-02T17:20:48.967Z,78.30
2022-11-02T17:23:33.285Z,79.30
2022-11-02T17:26:34.946Z,77.70
2022-11-02T17:29:00.136Z,78.70
2022-11-02T17:31:25.702Z,78.20
2022-11-02T17:33:49.850Z,78.40
2022-11-02T17:36:13.272Z,79.20
2022-11-02T17:38:38.137Z,78.00
2022-11-02T17:41:02.077Z,78.10
2022-11-02T17:43:24.567Z,78.10
2022-11-02T17:45:54.768Z,77.40
2022-11-02T17:48:17.986Z,77.40
2022-11-02T17:50:42.593Z,77.10
2022-11-02T17:53:07.215Z,75.70
2022-11-02T17:55:34.885Z,75.50
2022-11-02T17:57:59.460Z,74.10
2022-11-02T18:00:23.832Z,74.70
2022-11-02T18:02:50.655Z,75.10
2022-11-02T18:05:23.190Z,75.20
2022-11-02T18:07:46.434Z,75.00
2022-11-02T18:10:10.700Z,75.00
2022-11-02T18:12:35.305Z,73.50
2022-11-02T18:14:58.593Z,73.40
2022-11-02T18:17:21.909Z,74.00
2022-11-02T18:19:45.120Z,73.80
2022-11-02T18:22:10.018Z,73.70
2022-11-02T18:24:33.303Z,73.60
2022-11-02T18:26:56.516Z,73.40
2022-11-02T18:29:21.337Z,73.10
2022-11-02T18:31:44.863Z,73.40
2022-11-02T18:34:08.139Z,73.10
2022-11-02T18:36:31.402Z,73.50
2022-11-02T18:38:54.747Z,75.10
2022-11-02T18:41:30.905Z,73.30
2022-11-02T18:44:00.558Z,73.70
2022-11-02T18:46:30.657Z,74.00
2022-11-02T18:48:54.294Z,75.00
2022-11-02T18:51:17.635Z,74.00
2022-11-02T18:53:40.843Z,74.60
2022-11-02T18:56:04.558Z,74.20
2022-11-02T18:58:27.913Z,74.70
2022-11-02T19:00:51.297Z,73.80
2022-11-02T19:03:18.052Z,73.10
2022-11-02T19:08:44.269Z,73.20
2022-11-02T19:11:08.768Z,72.50
2022-11-02T19:13:31.994Z,72.70
2022-11-02T19:15:55.493Z,73.30
2022-11-02T19:18:20.107Z,74.20
2022-11-02T19:20:43.359Z,72.90
2022-11-02T19:23:08.432Z,72.90
2022-11-02T19:25:31.863Z,72.30
2022-11-02T19:27:55.207Z,72.70
2022-11-02T19:30:18.579Z,73.40
2022-11-02T19:32:42.011Z,72.70
2022-11-02T19:35:07.436Z,73.60
2022-11-02T19:37:34.503Z,72.90
2022-11-02T19:39:58.035Z,73.70
2022-11-02T19:42:21.314Z,73.50
2022-11-02T19:44:44.540Z,73.80
2022-11-02T19:47:08.066Z,73.20
2022-11-02T19:49:31.291Z,73.80
2022-11-02T19:51:56.044Z,74.40
2022-11-02T19:54:19.558Z,74.00
2022-11-02T19:56:42.779Z,73.20
2022-11-02T19:59:06.998Z,73.60
2022-11-02T20:01:32.637Z,74.00
2022-11-02T20:03:57.345Z,73.60
2022-11-02T20:06:23.921Z,73.70
2022-11-02T20:08:50.825Z,73.70
2022-11-02T20:11:16.279Z,74.60
2022-11-02T20:13:42.374Z,73.80
2022-11-02T20:16:07.760Z,73.80
2022-11-02T20:18:31.571Z,73.90
2022-11-02T20:20:54.871Z,74.10
2022-11-02T20:23:18.093Z,73.80
2022-11-02T20:25:42.696Z,73.60
2022-11-02T20:28:06.528Z,73.80
2022-11-02T20:30:30.133Z,74.10
2022-11-02T20:32:53.384Z,74.80
2022-11-02T20:35:20.005Z,74.10
2022-11-02T20:37:43.341Z,74.30
2022-11-02T20:40:08.013Z,74.00
2022-11-02T20:42:33.126Z,74.70
2022-11-02T20:44:56.574Z,75.20
2022-11-02T20:47:19.886Z,75.00
2022-11-02T20:49:51.330Z,74.80
2022-11-02T20:52:15.262Z,75.00
2022-11-02T20:54:38.520Z,75.60
2022-11-02T20:57:01.875Z,74.40
2022-11-02T20:59:26.543Z,74.90
2022-11-02T21:01:49.948Z,74.90
2022-11-02T21:04:19.681Z,74.60
2022-11-02T21:06:44.242Z,74.80
2022-11-02T21:09:10.953Z,74.30
2022-11-02T21:11:52.817Z,74.30
2022-11-02T21:14:16.045Z,74.50
2022-11-02T21:16:40.634Z,74.50
2022-11-02T21:19:04.170Z,74.70
2022-11-02T21:21:27.401Z,75.00
2022-11-02T21:23:50.636Z,74.30
2022-11-02T21:26:15.779Z,74.10
2022-11-02T21:28:42.099Z,74.50
2022-11-02T21:31:07.541Z,74.10
2022-11-02T21:33:33.863Z,74.50
2022-11-02T21:35:57.532Z,74.20
2022-11-02T21:38:20.880Z,74.50
2022-11-02T21:40:44.207Z,74.50
2022-11-02T21:43:08.238Z,75.00
2022-11-02T21:45:37.463Z,75.30
2022-11-02T21:48:01.066Z,75.10
2022-11-02T21:50:25.778Z,75.40
2022-11-02T21:52:49.117Z,74.90
2022-11-02T21:55:12.811Z,75.00
2022-11-02T21:57:36.333Z,75.00
2022-11-02T21:59:59.622Z,74.80
2022-11-02T22:02:22.371Z,75.10
2022-11-02T22:04:45.650Z,74.90
2022-11-02T22:07:10.273Z,74.90
2022-11-02T22:09:33.546Z,74.70
2022-11-02T22:12:11.283Z,74.50
2022-11-02T22:14:34.526Z,74.80
2022-11-02T22:16:57.741Z,74.70
2022-11-02T22:19:21.010Z,74.40
2022-11-02T22:21:46.050Z,74.30
2022-11-02T22:24:11.645Z,74.30
2022-11-02T22:26:36.706Z,74.70
2022-11-02T22:29:01.021Z,74.20
2022-11-02T22:31:26.964Z,75.00
2022-11-02T22:33:53.467Z,75.10
2022-11-02T22:36:20.601Z,74.70
2022-11-02T22:38:54.111Z,74.40
2022-11-02T22:41:21.233Z,74.90
2022-11-02T22:43:44.625Z,74.50
2022-11-02T22:46:09.872Z,74.50
2022-11-02T22:48:35.908Z,74.40
2022-11-02T22:50:59.422Z,74.30
2022-11-02T22:53:23.715Z,74.70
2022-11-02T22:55:46.980Z,74.30
2022-11-02T22:58:11.561Z,74.70
2022-11-02T23:00:34.749Z,74.60
2022-11-02T23:02:58.008Z,75.00
2022-11-02T23:05:21.214Z,74.70
2022-11-02T23:07:44.395Z,75.10
2022-11-02T23:10:28.707Z,74.90
2022-11-02T23:12:50.958Z,75.00
2022-11-02T23:15:15.712Z,75.20
2022-11-02T23:17:38.945Z,75.50
2022-11-02T23:20:01.213Z,74.80
2022-11-02T23:22:41.850Z,75.20
2022-11-02T23:25:12.600Z,75.10
2022-11-02T23:27:59.408Z,75.50
2022-11-02T23:30:41.976Z,75.90
2022-11-02T23:33:05.508Z,75.50
2022-11-02T23:35:46.472Z,75.70
2022-11-02T23:38:09.667Z,76.20
2022-11-02T23:40:33.859Z,76.00
2022-11-02T23:42:57.287Z,76.00
2022-11-02T23:45:20.556Z,76.10
2022-11-02T23:48:01.355Z,76.00
2022-11-02T23:50:47.725Z,75.90
2022-11-02T23:53:31.093Z,75.50
2022-11-02T23:56:11.689Z,75.40
2022-11-02T23:58:34.967Z,75.80
